sensor_id;sensor_type;location;lat;lon;timestamp;temperature;humidity
5639;DHT22;2841;44.526;11.360;2022-08-19T00:00:35;21.20;99.90
5639;DHT22;2841;44.526;11.360;2022-08-19T00:03:03;21.30;99.90
5639;DHT22;2841;44.526;11.360;2022-08-19T00:05:30;21.40;99.90
5639;DHT22;2841;44.526;11.360;2022-08-19T00:07:58;21.40;99.90
5639;DHT22;2841;44.526;11.360;2022-08-19T00:10:26;21.50;99.90
5639;DHT22;2841;44.526;11.360;2022-08-19T00:12:53;21.50;99.90
5639;DHT22;2841;44.526;11.360;2022-08-19T00:15:22;21.50;99.90
5639;DHT22;2841;44.526;11.360;2022-08-19T00:17:49;21.60;99.90
5639;DHT22;2841;44.526;11.360;2022-08-19T00:20:20;21.70;99.90
5639;DHT22;2841;44.526;11.360;2022-08-19T00:22:47;21.80;99.90
5639;DHT22;2841;44.526;11.360;2022-08-19T00:25:14;21.80;99.90
5639;DHT22;2841;44.526;11.360;2022-08-19T00:27:43;21.80;99.90
5639;DHT22;2841;44.526;11.360;2022-08-19T00:30:10;21.80;99.90
5639;DHT22;2841;44.526;11.360;2022-08-19T00:32:38;21.80;99.90
5639;DHT22;2841;44.526;11.360;2022-08-19T00:35:06;21.70;99.90
5639;DHT22;2841;44.526;11.360;2022-08-19T00:37:33;21.80;99.90
5639;DHT22;2841;44.526;11.360;2022-08-19T00:40:02;21.80;99.90
5639;DHT22;2841;44.526;11.360;2022-08-19T00:42:29;21.70;99.90
5639;DHT22;2841;44.526;11.360;2022-08-19T00:44:57;21.70;99.90
5639;DHT22;2841;44.526;11.360;2022-08-19T00:47:25;21.70;99.90
5639;DHT22;2841;44.526;11.360;2022-08-19T00:49:56;21.70;99.90
5639;DHT22;2841;44.526;11.360;2022-08-19T00:52:26;21.70;99.90
5639;DHT22;2841;44.526;11.360;2022-08-19T00:54:56;21.70;99.90
5639;DHT22;2841;44.526;11.360;2022-08-19T00:57:28;21.60;99.90
5639;DHT22;2841;44.526;11.360;2022-08-19T00:59:58;21.60;99.90
5639;DHT22;2841;44.526;11.360;2022-08-19T01:02:27;21.60;99.90
5639;DHT22;2841;44.526;11.360;2022-08-19T01:04:54;21.60;99.90
5639;DHT22;2841;44.526;11.360;2022-08-19T01:07:21;21.60;99.90
5639;DHT22;2841;44.526;11.360;2022-08-19T01:09:51;21.60;99.90
5639;DHT22;2841;44.526;11.360;2022-08-19T01:12:19;21.60;99.90
5639;DHT22;2841;44.526;11.360;2022-08-19T01:14:47;21.50;99.90
5639;DHT22;2841;44.526;11.360;2022-08-19T01:17:16;21.50;99.90
5639;DHT22;2841;44.526;11.360;2022-08-19T01:19:45;21.30;99.90
5639;DHT22;2841;44.526;11.360;2022-08-19T01:22:18;21.20;99.90
5639;DHT22;2841;44.526;11.360;2022-08-19T01:24:48;21.20;99.90
5639;DHT22;2841;44.526;11.360;2022-08-19T01:27:15;21.10;99.90
5639;DHT22;2841;44.526;11.360;2022-08-19T01:29:44;21.10;99.90
5639;DHT22;2841;44.526;11.360;2022-08-19T01:32:13;21.00;99.90
5639;DHT22;2841;44.526;11.360;2022-08-19T01:34:41;21.00;99.90
5639;DHT22;2841;44.526;11.360;2022-08-19T01:37:14;21.00;99.90
5639;DHT22;2841;44.526;11.360;2022-08-19T01:39:42;21.00;99.90
5639;DHT22;2841;44.526;11.360;2022-08-19T01:42:10;21.00;99.90
5639;DHT22;2841;44.526;11.360;2022-08-19T01:44:39;20.90;99.90
5639;DHT22;2841;44.526;11.360;2022-08-19T01:47:07;20.90;99.90
5639;DHT22;2841;44.526;11.360;2022-08-19T01:49:35;20.90;99.90
5639;DHT22;2841;44.526;11.360;2022-08-19T01:52:03;20.90;99.90
5639;DHT22;2841;44.526;11.360;2022-08-19T01:54:32;20.90;99.90
5639;DHT22;2841;44.526;11.360;2022-08-19T01:57:02;20.90;99.90
5639;DHT22;2841;44.526;11.360;2022-08-19T01:59:32;20.90;99.90
5639;DHT22;2841;44.526;11.360;2022-08-19T02:02:02;20.90;99.90
5639;DHT22;2841;44.526;11.360;2022-08-19T02:04:31;20.80;99.90
5639;DHT22;2841;44.526;11.360;2022-08-19T02:06:59;20.70;99.90
5639;DHT22;2841;44.526;11.360;2022-08-19T02:09:26;20.80;99.90
5639;DHT22;2841;44.526;11.360;2022-08-19T02:11:53;20.80;99.90
5639;DHT22;2841;44.526;11.360;2022-08-19T02:14:20;20.80;99.90
5639;DHT22;2841;44.526;11.360;2022-08-19T02:16:48;20.80;99.90
5639;DHT22;2841;44.526;11.360;2022-08-19T02:19:15;20.80;99.90
5639;DHT22;2841;44.526;11.360;2022-08-19T02:21:42;20.80;99.90
5639;DHT22;2841;44.526;11.360;2022-08-19T02:24:10;20.70;99.90
5639;DHT22;2841;44.526;11.360;2022-08-19T02:26:37;20.70;99.90
5639;DHT22;2841;44.526;11.360;2022-08-19T02:29:04;20.60;99.90
5639;DHT22;2841;44.526;11.360;2022-08-19T02:31:31;20.60;99.90
5639;DHT22;2841;44.526;11.360;2022-08-19T02:34:00;20.60;99.90
5639;DHT22;2841;44.526;11.360;2022-08-19T02:36:27;20.70;99.90
5639;DHT22;2841;44.526;11.360;2022-08-19T02:38:55;20.70;99.90
5639;DHT22;2841;44.526;11.360;2022-08-19T02:41:26;20.70;99.90
5639;DHT22;2841;44.526;11.360;2022-08-19T02:43:53;20.70;99.90
5639;DHT22;2841;44.526;11.360;2022-08-19T02:46:22;20.70;99.90
5639;DHT22;2841;44.526;11.360;2022-08-19T02:48:51;20.80;99.90
5639;DHT22;2841;44.526;11.360;2022-08-19T02:51:22;20.80;99.90
5639;DHT22;2841;44.526;11.360;2022-08-19T02:53:49;20.80;99.90
5639;DHT22;2841;44.526;11.360;2022-08-19T02:56:17;20.90;99.90
5639;DHT22;2841;44.526;11.360;2022-08-19T02:58:44;20.90;99.90
5639;DHT22;2841;44.526;11.360;2022-08-19T03:01:18;20.90;99.90
5639;DHT22;2841;44.526;11.360;2022-08-19T03:03:46;21.00;99.90
5639;DHT22;2841;44.526;11.360;2022-08-19T03:06:15;21.00;99.90
5639;DHT22;2841;44.526;11.360;2022-08-19T03:08:45;21.00;99.90
5639;DHT22;2841;44.526;11.360;2022-08-19T03:11:13;21.00;99.90
5639;DHT22;2841;44.526;11.360;2022-08-19T03:13:41;21.00;99.90
5639;DHT22;2841;44.526;11.360;2022-08-19T03:16:10;21.00;99.90
5639;DHT22;2841;44.526;11.360;2022-08-19T03:18:37;21.00;99.90
5639;DHT22;2841;44.526;11.360;2022-08-19T03:21:05;21.00;99.90
5639;DHT22;2841;44.526;11.360;2022-08-19T03:23:32;21.00;99.90
5639;DHT22;2841;44.526;11.360;2022-08-19T03:26:03;21.00;99.90
5639;DHT22;2841;44.526;11.360;2022-08-19T03:28:31;21.00;99.90
5639;DHT22;2841;44.526;11.360;2022-08-19T03:31:03;21.00;99.90
5639;DHT22;2841;44.526;11.360;2022-08-19T03:33:32;21.00;99.90
5639;DHT22;2841;44.526;11.360;2022-08-19T03:36:00;21.00;99.90
5639;DHT22;2841;44.526;11.360;2022-08-19T03:38:28;21.10;99.90
5639;DHT22;2841;44.526;11.360;2022-08-19T03:40:55;21.00;99.90
5639;DHT22;2841;44.526;11.360;2022-08-19T03:43:23;21.00;99.90
5639;DHT22;2841;44.526;11.360;2022-08-19T03:45:59;21.10;99.90
5639;DHT22;2841;44.526;11.360;2022-08-19T03:48:28;21.10;99.90
5639;DHT22;2841;44.526;11.360;2022-08-19T03:50:56;21.10;99.90
5639;DHT22;2841;44.526;11.360;2022-08-19T03:53:24;21.10;99.90
5639;DHT22;2841;44.526;11.360;2022-08-19T03:55:52;21.10;99.90
5639;DHT22;2841;44.526;11.360;2022-08-19T03:58:19;21.10;99.90
5639;DHT22;2841;44.526;11.360;2022-08-19T04:00:47;21.10;99.90
5639;DHT22;2841;44.526;11.360;2022-08-19T04:03:15;21.10;99.90
5639;DHT22;2841;44.526;11.360;2022-08-19T04:05:44;21.10;99.90
5639;DHT22;2841;44.526;11.360;2022-08-19T04:08:11;21.10;99.90
5639;DHT22;2841;44.526;11.360;2022-08-19T04:10:38;21.20;99.90
5639;DHT22;2841;44.526;11.360;2022-08-19T04:13:06;21.20;99.90
5639;DHT22;2841;44.526;11.360;2022-08-19T04:15:40;21.20;99.90
5639;DHT22;2841;44.526;11.360;2022-08-19T04:18:09;21.20;99.90
5639;DHT22;2841;44.526;11.360;2022-08-19T04:20:45;21.30;99.90
5639;DHT22;2841;44.526;11.360;2022-08-19T04:23:13;21.30;99.90
5639;DHT22;2841;44.526;11.360;2022-08-19T04:25:42;21.30;99.90
5639;DHT22;2841;44.526;11.360;2022-08-19T04:28:11;21.40;99.90
5639;DHT22;2841;44.526;11.360;2022-08-19T04:30:40;21.40;99.90
5639;DHT22;2841;44.526;11.360;2022-08-19T04:33:09;21.40;99.90
5639;DHT22;2841;44.526;11.360;2022-08-19T04:35:37;21.30;99.90
5639;DHT22;2841;44.526;11.360;2022-08-19T04:38:05;21.40;99.90
5639;DHT22;2841;44.526;11.360;2022-08-19T04:40:32;21.40;99.90
5639;DHT22;2841;44.526;11.360;2022-08-19T04:43:17;21.50;99.90
5639;DHT22;2841;44.526;11.360;2022-08-19T04:45:45;21.50;99.90
5639;DHT22;2841;44.526;11.360;2022-08-19T04:48:13;21.50;99.90
5639;DHT22;2841;44.526;11.360;2022-08-19T04:50:42;21.60;99.90
5639;DHT22;2841;44.526;11.360;2022-08-19T04:53:09;21.70;99.90
5639;DHT22;2841;44.526;11.360;2022-08-19T04:55:39;21.70;99.90
5639;DHT22;2841;44.526;11.360;2022-08-19T04:58:06;21.70;99.90
5639;DHT22;2841;44.526;11.360;2022-08-19T05:00:33;21.70;99.90
5639;DHT22;2841;44.526;11.360;2022-08-19T05:03:00;21.70;99.90
5639;DHT22;2841;44.526;11.360;2022-08-19T05:05:29;21.80;99.90
5639;DHT22;2841;44.526;11.360;2022-08-19T05:07:57;21.80;99.90
5639;DHT22;2841;44.526;11.360;2022-08-19T05:10:24;21.70;99.90
5639;DHT22;2841;44.526;11.360;2022-08-19T05:12:51;21.80;99.90
5639;DHT22;2841;44.526;11.360;2022-08-19T05:15:18;21.80;99.90
5639;DHT22;2841;44.526;11.360;2022-08-19T05:17:45;21.80;99.90
5639;DHT22;2841;44.526;11.360;2022-08-19T05:20:26;21.80;99.90
5639;DHT22;2841;44.526;11.360;2022-08-19T05:23:12;21.80;99.90
5639;DHT22;2841;44.526;11.360;2022-08-19T05:25:42;21.80;99.90
5639;DHT22;2841;44.526;11.360;2022-08-19T05:28:10;21.70;99.90
5639;DHT22;2841;44.526;11.360;2022-08-19T05:30:37;21.70;99.90
5639;DHT22;2841;44.526;11.360;2022-08-19T05:33:06;21.70;99.90
5639;DHT22;2841;44.526;11.360;2022-08-19T05:35:36;21.70;99.90
5639;DHT22;2841;44.526;11.360;2022-08-19T05:38:03;21.70;99.90
5639;DHT22;2841;44.526;11.360;2022-08-19T05:40:33;21.70;99.90
5639;DHT22;2841;44.526;11.360;2022-08-19T05:43:02;21.70;99.90
5639;DHT22;2841;44.526;11.360;2022-08-19T05:45:29;21.60;99.90
5639;DHT22;2841;44.526;11.360;2022-08-19T05:47:56;21.30;99.90
5639;DHT22;2841;44.526;11.360;2022-08-19T05:50:23;21.10;99.90
5639;DHT22;2841;44.526;11.360;2022-08-19T05:52:50;21.10;99.90
5639;DHT22;2841;44.526;11.360;2022-08-19T05:55:18;20.90;99.90
5639;DHT22;2841;44.526;11.360;2022-08-19T05:57:47;20.70;99.90
5639;DHT22;2841;44.526;11.360;2022-08-19T06:00:14;20.50;99.90
5639;DHT22;2841;44.526;11.360;2022-08-19T06:02:41;20.20;99.90
5639;DHT22;2841;44.526;11.360;2022-08-19T06:05:10;19.90;99.90
5639;DHT22;2841;44.526;11.360;2022-08-19T06:07:37;19.50;99.90
5639;DHT22;2841;44.526;11.360;2022-08-19T06:10:06;19.10;99.90
5639;DHT22;2841;44.526;11.360;2022-08-19T06:12:34;18.70;99.90
5639;DHT22;2841;44.526;11.360;2022-08-19T06:15:05;18.60;99.90
5639;DHT22;2841;44.526;11.360;2022-08-19T06:17:33;18.60;99.90
5639;DHT22;2841;44.526;11.360;2022-08-19T06:20:00;18.70;99.90
5639;DHT22;2841;44.526;11.360;2022-08-19T06:22:28;18.60;99.90
5639;DHT22;2841;44.526;11.360;2022-08-19T06:24:55;18.60;99.90
5639;DHT22;2841;44.526;11.360;2022-08-19T06:27:23;18.70;99.90
5639;DHT22;2841;44.526;11.360;2022-08-19T06:29:50;18.80;99.90
5639;DHT22;2841;44.526;11.360;2022-08-19T06:32:18;18.70;99.90
5639;DHT22;2841;44.526;11.360;2022-08-19T06:34:45;18.60;99.90
5639;DHT22;2841;44.526;11.360;2022-08-19T06:37:13;18.60;99.90
5639;DHT22;2841;44.526;11.360;2022-08-19T06:39:42;18.60;99.90
5639;DHT22;2841;44.526;11.360;2022-08-19T06:42:10;18.60;99.90
5639;DHT22;2841;44.526;11.360;2022-08-19T06:44:43;18.60;99.90
5639;DHT22;2841;44.526;11.360;2022-08-19T06:47:12;18.70;99.90
5639;DHT22;2841;44.526;11.360;2022-08-19T06:49:41;18.70;99.90
5639;DHT22;2841;44.526;11.360;2022-08-19T06:52:09;18.70;99.90
5639;DHT22;2841;44.526;11.360;2022-08-19T06:54:37;18.80;99.90
5639;DHT22;2841;44.526;11.360;2022-08-19T06:57:05;18.90;99.90
5639;DHT22;2841;44.526;11.360;2022-08-19T06:59:32;18.90;99.90
5639;DHT22;2841;44.526;11.360;2022-08-19T07:02:02;19.00;99.90
5639;DHT22;2841;44.526;11.360;2022-08-19T07:04:31;19.00;99.90
5639;DHT22;2841;44.526;11.360;2022-08-19T07:07:03;19.10;99.90
5639;DHT22;2841;44.526;11.360;2022-08-19T07:09:32;19.10;99.90
5639;DHT22;2841;44.526;11.360;2022-08-19T07:11:59;19.10;99.90
5639;DHT22;2841;44.526;11.360;2022-08-19T07:14:27;19.20;99.90
5639;DHT22;2841;44.526;11.360;2022-08-19T07:16:56;19.30;99.90
5639;DHT22;2841;44.526;11.360;2022-08-19T07:19:25;19.30;99.90
5639;DHT22;2841;44.526;11.360;2022-08-19T07:21:54;19.50;99.90
5639;DHT22;2841;44.526;11.360;2022-08-19T07:24:24;19.60;99.90
5639;DHT22;2841;44.526;11.360;2022-08-19T07:26:53;19.60;99.90
5639;DHT22;2841;44.526;11.360;2022-08-19T07:29:21;19.60;99.90
5639;DHT22;2841;44.526;11.360;2022-08-19T07:31:49;19.70;99.90
5639;DHT22;2841;44.526;11.360;2022-08-19T07:34:17;19.70;99.90
5639;DHT22;2841;44.526;11.360;2022-08-19T07:36:45;19.70;99.90
5639;DHT22;2841;44.526;11.360;2022-08-19T07:39:19;19.70;99.90
5639;DHT22;2841;44.526;11.360;2022-08-19T07:41:48;19.70;99.90
5639;DHT22;2841;44.526;11.360;2022-08-19T07:44:17;19.60;99.90
5639;DHT22;2841;44.526;11.360;2022-08-19T07:46:46;19.60;99.90
5639;DHT22;2841;44.526;11.360;2022-08-19T07:49:14;19.60;99.90
5639;DHT22;2841;44.526;11.360;2022-08-19T07:51:45;19.70;99.90
5639;DHT22;2841;44.526;11.360;2022-08-19T07:54:12;19.70;99.90
5639;DHT22;2841;44.526;11.360;2022-08-19T07:56:39;19.80;99.90
5639;DHT22;2841;44.526;11.360;2022-08-19T07:59:08;20.00;99.90
5639;DHT22;2841;44.526;11.360;2022-08-19T08:01:35;20.10;99.90
5639;DHT22;2841;44.526;11.360;2022-08-19T08:04:03;20.20;99.90
5639;DHT22;2841;44.526;11.360;2022-08-19T08:06:47;20.20;99.90
5639;DHT22;2841;44.526;11.360;2022-08-19T08:09:33;20.40;99.90
5639;DHT22;2841;44.526;11.360;2022-08-19T08:12:04;20.50;99.90
5639;DHT22;2841;44.526;11.360;2022-08-19T08:14:37;20.70;99.90
5639;DHT22;2841;44.526;11.360;2022-08-19T08:17:06;20.80;99.90
5639;DHT22;2841;44.526;11.360;2022-08-19T08:19:33;21.00;99.90
5639;DHT22;2841;44.526;11.360;2022-08-19T08:22:01;21.00;99.90
5639;DHT22;2841;44.526;11.360;2022-08-19T08:24:30;21.10;99.90
5639;DHT22;2841;44.526;11.360;2022-08-19T08:26:58;21.10;99.90
5639;DHT22;2841;44.526;11.360;2022-08-19T08:29:26;21.20;99.90
5639;DHT22;2841;44.526;11.360;2022-08-19T08:31:55;21.30;99.90
5639;DHT22;2841;44.526;11.360;2022-08-19T08:34:22;21.40;99.90
5639;DHT22;2841;44.526;11.360;2022-08-19T08:36:49;21.50;99.90
5639;DHT22;2841;44.526;11.360;2022-08-19T08:39:19;21.50;99.90
5639;DHT22;2841;44.526;11.360;2022-08-19T08:41:51;21.60;99.90
5639;DHT22;2841;44.526;11.360;2022-08-19T08:44:22;21.70;99.90
5639;DHT22;2841;44.526;11.360;2022-08-19T08:46:55;22.00;99.90
5639;DHT22;2841;44.526;11.360;2022-08-19T08:49:31;22.10;99.90
5639;DHT22;2841;44.526;11.360;2022-08-19T08:52:04;22.20;99.90
5639;DHT22;2841;44.526;11.360;2022-08-19T08:54:35;22.40;99.90
5639;DHT22;2841;44.526;11.360;2022-08-19T08:57:07;22.60;99.90
5639;DHT22;2841;44.526;11.360;2022-08-19T08:59:39;22.70;99.90
5639;DHT22;2841;44.526;11.360;2022-08-19T09:02:08;22.70;99.90
5639;DHT22;2841;44.526;11.360;2022-08-19T09:04:35;22.70;99.90
5639;DHT22;2841;44.526;11.360;2022-08-19T09:07:17;22.80;99.90
5639;DHT22;2841;44.526;11.360;2022-08-19T09:09:49;22.80;99.90
5639;DHT22;2841;44.526;11.360;2022-08-19T09:12:21;22.70;99.90
5639;DHT22;2841;44.526;11.360;2022-08-19T09:14:54;22.70;99.90
5639;DHT22;2841;44.526;11.360;2022-08-19T09:17:26;22.90;99.90
5639;DHT22;2841;44.526;11.360;2022-08-19T09:19:57;23.00;99.90
5639;DHT22;2841;44.526;11.360;2022-08-19T09:22:25;23.10;99.90
5639;DHT22;2841;44.526;11.360;2022-08-19T09:24:54;23.20;99.90
5639;DHT22;2841;44.526;11.360;2022-08-19T09:27:22;23.00;99.90
5639;DHT22;2841;44.526;11.360;2022-08-19T09:29:50;23.00;99.90
5639;DHT22;2841;44.526;11.360;2022-08-19T09:32:18;23.30;99.90
5639;DHT22;2841;44.526;11.360;2022-08-19T09:34:46;23.40;99.90
5639;DHT22;2841;44.526;11.360;2022-08-19T09:37:13;23.40;99.90
5639;DHT22;2841;44.526;11.360;2022-08-19T09:39:40;23.40;99.90
5639;DHT22;2841;44.526;11.360;2022-08-19T09:42:08;23.40;99.90
5639;DHT22;2841;44.526;11.360;2022-08-19T09:44:38;23.80;99.90
5639;DHT22;2841;44.526;11.360;2022-08-19T09:47:05;23.90;99.90
5639;DHT22;2841;44.526;11.360;2022-08-19T09:49:32;23.80;99.90
5639;DHT22;2841;44.526;11.360;2022-08-19T09:52:01;23.80;99.90
5639;DHT22;2841;44.526;11.360;2022-08-19T09:54:28;23.50;99.90
5639;DHT22;2841;44.526;11.360;2022-08-19T09:56:57;23.50;99.90
5639;DHT22;2841;44.526;11.360;2022-08-19T09:59:26;23.60;99.90
5639;DHT22;2841;44.526;11.360;2022-08-19T10:01:53;23.70;99.90
5639;DHT22;2841;44.526;11.360;2022-08-19T10:04:21;23.80;99.90
5639;DHT22;2841;44.526;11.360;2022-08-19T10:06:49;24.10;99.90
5639;DHT22;2841;44.526;11.360;2022-08-19T10:09:18;24.10;99.90
5639;DHT22;2841;44.526;11.360;2022-08-19T10:11:45;23.90;99.90
5639;DHT22;2841;44.526;11.360;2022-08-19T10:14:13;23.80;99.90
5639;DHT22;2841;44.526;11.360;2022-08-19T10:16:42;23.80;99.90
5639;DHT22;2841;44.526;11.360;2022-08-19T10:19:09;23.90;99.90
5639;DHT22;2841;44.526;11.360;2022-08-19T10:21:36;24.30;99.90
5639;DHT22;2841;44.526;11.360;2022-08-19T10:24:05;24.40;99.90
5639;DHT22;2841;44.526;11.360;2022-08-19T10:26:37;24.30;99.90
5639;DHT22;2841;44.526;11.360;2022-08-19T10:29:05;24.40;99.90
5639;DHT22;2841;44.526;11.360;2022-08-19T10:31:33;24.60;99.90
5639;DHT22;2841;44.526;11.360;2022-08-19T10:34:01;24.90;99.90
5639;DHT22;2841;44.526;11.360;2022-08-19T10:36:30;25.00;99.90
5639;DHT22;2841;44.526;11.360;2022-08-19T10:39:00;25.10;99.90
5639;DHT22;2841;44.526;11.360;2022-08-19T10:41:29;25.20;99.90
5639;DHT22;2841;44.526;11.360;2022-08-19T10:44:00;25.50;99.90
5639;DHT22;2841;44.526;11.360;2022-08-19T10:46:27;25.80;99.90
5639;DHT22;2841;44.526;11.360;2022-08-19T10:48:56;25.80;99.90
5639;DHT22;2841;44.526;11.360;2022-08-19T10:51:24;25.60;99.90
5639;DHT22;2841;44.526;11.360;2022-08-19T10:54:08;25.60;99.90
5639;DHT22;2841;44.526;11.360;2022-08-19T10:56:35;25.80;99.90
5639;DHT22;2841;44.526;11.360;2022-08-19T10:59:20;25.70;99.90
5639;DHT22;2841;44.526;11.360;2022-08-19T11:01:48;25.60;99.90
5639;DHT22;2841;44.526;11.360;2022-08-19T11:04:16;25.60;99.90
5639;DHT22;2841;44.526;11.360;2022-08-19T11:06:43;25.80;99.90
5639;DHT22;2841;44.526;11.360;2022-08-19T11:09:14;25.90;99.90
5639;DHT22;2841;44.526;11.360;2022-08-19T11:11:42;26.00;99.90
5639;DHT22;2841;44.526;11.360;2022-08-19T11:14:12;25.70;99.90
5639;DHT22;2841;44.526;11.360;2022-08-19T11:16:41;25.70;99.90
5639;DHT22;2841;44.526;11.360;2022-08-19T11:19:10;26.10;99.90
5639;DHT22;2841;44.526;11.360;2022-08-19T11:21:39;26.50;99.90
5639;DHT22;2841;44.526;11.360;2022-08-19T11:24:11;26.10;96.90
5639;DHT22;2841;44.526;11.360;2022-08-19T11:26:40;26.10;98.10
5639;DHT22;2841;44.526;11.360;2022-08-19T11:29:08;26.40;97.50
5639;DHT22;2841;44.526;11.360;2022-08-19T11:31:39;26.50;95.40
5639;DHT22;2841;44.526;11.360;2022-08-19T11:34:11;26.40;94.10
5639;DHT22;2841;44.526;11.360;2022-08-19T11:36:40;26.60;94.10
5639;DHT22;2841;44.526;11.360;2022-08-19T11:39:09;27.10;93.20
5639;DHT22;2841;44.526;11.360;2022-08-19T11:41:36;27.50;92.10
5639;DHT22;2841;44.526;11.360;2022-08-19T11:44:03;27.80;90.70
5639;DHT22;2841;44.526;11.360;2022-08-19T11:46:31;27.70;90.20
5639;DHT22;2841;44.526;11.360;2022-08-19T11:48:59;27.50;89.80
5639;DHT22;2841;44.526;11.360;2022-08-19T11:51:30;27.50;88.80
5639;DHT22;2841;44.526;11.360;2022-08-19T11:53:58;27.20;88.10
5639;DHT22;2841;44.526;11.360;2022-08-19T11:56:26;27.20;88.20
5639;DHT22;2841;44.526;11.360;2022-08-19T11:58:54;27.20;87.80
5639;DHT22;2841;44.526;11.360;2022-08-19T12:01:24;27.30;87.50
5639;DHT22;2841;44.526;11.360;2022-08-19T12:03:52;27.10;86.20
5639;DHT22;2841;44.526;11.360;2022-08-19T12:06:22;26.90;86.00
5639;DHT22;2841;44.526;11.360;2022-08-19T12:08:52;26.70;86.20
5639;DHT22;2841;44.526;11.360;2022-08-19T12:11:19;26.60;86.60
5639;DHT22;2841;44.526;11.360;2022-08-19T12:13:46;26.60;86.80
5639;DHT22;2841;44.526;11.360;2022-08-19T12:16:15;26.70;86.80
5639;DHT22;2841;44.526;11.360;2022-08-19T12:18:44;26.80;86.40
5639;DHT22;2841;44.526;11.360;2022-08-19T12:21:12;26.90;85.40
5639;DHT22;2841;44.526;11.360;2022-08-19T12:23:39;27.10;84.30
5639;DHT22;2841;44.526;11.360;2022-08-19T12:26:09;27.20;83.10
5639;DHT22;2841;44.526;11.360;2022-08-19T12:28:36;27.60;82.40
5639;DHT22;2841;44.526;11.360;2022-08-19T12:31:04;27.80;81.00
5639;DHT22;2841;44.526;11.360;2022-08-19T12:33:31;28.00;80.60
5639;DHT22;2841;44.526;11.360;2022-08-19T12:36:01;28.50;79.60
5639;DHT22;2841;44.526;11.360;2022-08-19T12:38:28;29.00;78.00
5639;DHT22;2841;44.526;11.360;2022-08-19T12:40:55;29.50;75.80
5639;DHT22;2841;44.526;11.360;2022-08-19T12:43:24;29.50;74.40
5639;DHT22;2841;44.526;11.360;2022-08-19T12:45:51;29.10;74.20
5639;DHT22;2841;44.526;11.360;2022-08-19T12:48:18;28.60;75.10
5639;DHT22;2841;44.526;11.360;2022-08-19T12:50:46;28.10;75.70
5639;DHT22;2841;44.526;11.360;2022-08-19T12:53:14;27.80;76.20
5639;DHT22;2841;44.526;11.360;2022-08-19T12:55:41;27.70;76.00
5639;DHT22;2841;44.526;11.360;2022-08-19T12:58:09;27.90;76.00
5639;DHT22;2841;44.526;11.360;2022-08-19T13:00:40;28.10;74.90
5639;DHT22;2841;44.526;11.360;2022-08-19T13:03:07;28.00;74.60
5639;DHT22;2841;44.526;11.360;2022-08-19T13:05:34;28.50;73.20
5639;DHT22;2841;44.526;11.360;2022-08-19T13:08:01;28.50;71.50
5639;DHT22;2841;44.526;11.360;2022-08-19T13:10:31;28.30;71.80
5639;DHT22;2841;44.526;11.360;2022-08-19T13:13:01;28.00;71.90
5639;DHT22;2841;44.526;11.360;2022-08-19T13:15:32;28.40;72.00
5639;DHT22;2841;44.526;11.360;2022-08-19T13:18:01;29.00;70.60
5639;DHT22;2841;44.526;11.360;2022-08-19T13:20:28;29.30;69.40
5639;DHT22;2841;44.526;11.360;2022-08-19T13:22:55;29.60;68.10
5639;DHT22;2841;44.526;11.360;2022-08-19T13:25:23;30.00;67.20
5639;DHT22;2841;44.526;11.360;2022-08-19T13:27:51;30.10;66.60
5639;DHT22;2841;44.526;11.360;2022-08-19T13:30:19;30.00;66.60
5639;DHT22;2841;44.526;11.360;2022-08-19T13:33:05;29.80;66.70
5639;DHT22;2841;44.526;11.360;2022-08-19T13:35:41;29.40;66.90
5639;DHT22;2841;44.526;11.360;2022-08-19T13:38:09;29.00;68.40
5639;DHT22;2841;44.526;11.360;2022-08-19T13:40:37;28.60;68.40
5639;DHT22;2841;44.526;11.360;2022-08-19T13:43:04;29.00;68.40
5639;DHT22;2841;44.526;11.360;2022-08-19T13:45:33;29.00;67.80
5639;DHT22;2841;44.526;11.360;2022-08-19T13:48:02;28.40;68.40
5639;DHT22;2841;44.526;11.360;2022-08-19T13:50:34;28.00;69.10
5639;DHT22;2841;44.526;11.360;2022-08-19T13:53:02;28.00;69.50
5639;DHT22;2841;44.526;11.360;2022-08-19T13:55:29;28.40;69.20
5639;DHT22;2841;44.526;11.360;2022-08-19T13:57:58;28.80;68.30
5639;DHT22;2841;44.526;11.360;2022-08-19T14:00:27;28.80;68.10
5639;DHT22;2841;44.526;11.360;2022-08-19T14:02:55;28.90;68.00
5639;DHT22;2841;44.526;11.360;2022-08-19T14:05:24;29.20;67.90
5639;DHT22;2841;44.526;11.360;2022-08-19T14:07:53;29.60;67.40
5639;DHT22;2841;44.526;11.360;2022-08-19T14:10:21;29.50;67.90
5639;DHT22;2841;44.526;11.360;2022-08-19T14:12:48;29.40;68.20
5639;DHT22;2841;44.526;11.360;2022-08-19T14:15:16;29.50;68.20
5639;DHT22;2841;44.526;11.360;2022-08-19T14:17:44;29.30;68.20
5639;DHT22;2841;44.526;11.360;2022-08-19T14:20:12;29.20;68.60
5639;DHT22;2841;44.526;11.360;2022-08-19T14:22:42;29.00;69.00
5639;DHT22;2841;44.526;11.360;2022-08-19T14:25:12;29.20;69.00
5639;DHT22;2841;44.526;11.360;2022-08-19T14:27:40;29.70;68.30
5639;DHT22;2841;44.526;11.360;2022-08-19T14:30:10;29.50;67.90
5639;DHT22;2841;44.526;11.360;2022-08-19T14:32:37;29.20;68.10
5639;DHT22;2841;44.526;11.360;2022-08-19T14:35:05;28.70;68.90
5639;DHT22;2841;44.526;11.360;2022-08-19T14:37:33;29.00;68.90
5639;DHT22;2841;44.526;11.360;2022-08-19T14:40:01;29.70;68.00
5639;DHT22;2841;44.526;11.360;2022-08-19T14:42:30;30.40;67.00
5639;DHT22;2841;44.526;11.360;2022-08-19T14:44:57;30.30;66.40
5639;DHT22;2841;44.526;11.360;2022-08-19T14:47:25;29.70;67.10
5639;DHT22;2841;44.526;11.360;2022-08-19T14:49:52;29.10;68.80
5639;DHT22;2841;44.526;11.360;2022-08-19T14:52:19;28.70;68.90
5639;DHT22;2841;44.526;11.360;2022-08-19T14:54:46;28.40;69.30
5639;DHT22;2841;44.526;11.360;2022-08-19T14:57:14;28.30;69.70
5639;DHT22;2841;44.526;11.360;2022-08-19T14:59:43;28.00;70.00
5639;DHT22;2841;44.526;11.360;2022-08-19T15:02:10;27.60;70.40
5639;DHT22;2841;44.526;11.360;2022-08-19T15:04:38;27.30;71.00
5639;DHT22;2841;44.526;11.360;2022-08-19T15:07:05;27.10;71.50
5639;DHT22;2841;44.526;11.360;2022-08-19T15:09:33;26.70;71.80
5639;DHT22;2841;44.526;11.360;2022-08-19T15:12:01;26.50;72.20
5639;DHT22;2841;44.526;11.360;2022-08-19T15:14:28;26.30;72.40
5639;DHT22;2841;44.526;11.360;2022-08-19T15:17:01;26.30;72.70
5639;DHT22;2841;44.526;11.360;2022-08-19T15:19:29;26.40;72.50
5639;DHT22;2841;44.526;11.360;2022-08-19T15:21:57;26.70;72.20
5639;DHT22;2841;44.526;11.360;2022-08-19T15:24:25;27.10;71.60
5639;DHT22;2841;44.526;11.360;2022-08-19T15:26:52;27.70;70.80
5639;DHT22;2841;44.526;11.360;2022-08-19T15:29:21;28.60;68.90
5639;DHT22;2841;44.526;11.360;2022-08-19T15:31:50;29.90;67.10
5639;DHT22;2841;44.526;11.360;2022-08-19T15:34:18;31.70;64.10
5639;DHT22;2841;44.526;11.360;2022-08-19T15:36:46;33.40;60.60
5639;DHT22;2841;44.526;11.360;2022-08-19T15:39:12;33.90;58.20
5639;DHT22;2841;44.526;11.360;2022-08-19T15:41:41;33.80;58.30
5639;DHT22;2841;44.526;11.360;2022-08-19T15:44:11;33.70;58.40
5639;DHT22;2841;44.526;11.360;2022-08-19T15:46:41;32.50;59.00
5639;DHT22;2841;44.526;11.360;2022-08-19T15:49:09;31.20;61.40
5639;DHT22;2841;44.526;11.360;2022-08-19T15:51:38;30.40;62.70
5639;DHT22;2841;44.526;11.360;2022-08-19T15:54:08;30.10;63.40